sensor_id;sensor_type;location;lat;lon;timestamp;pressure;altitude;pressure_sealevel;temperature;humidity
21633;BME280;48765;51.568;8.840;2022-09-09T00:01:35;97833.84;;;14.46;100.00
21633;BME280;48765;51.568;8.840;2022-09-09T00:04:15;97827.75;;;14.43;100.00
21633;BME280;48765;51.568;8.840;2022-09-09T00:06:43;97826.69;;;14.48;100.00
21633;BME280;48765;51.568;8.840;2022-09-09T00:09:12;97823.06;;;14.51;100.00
21633;BME280;48765;51.568;8.840;2022-09-09T00:11:41;97810.69;;;14.48;100.00
21633;BME280;48765;51.568;8.840;2022-09-09T00:14:12;97815.34;;;14.42;100.00
21633;BME280;48765;51.568;8.840;2022-09-09T00:16:40;97816.50;;;14.33;100.00
21633;BME280;48765;51.568;8.840;2022-09-09T00:19:12;97817.66;;;14.24;100.00
21633;BME280;48765;51.568;8.840;2022-09-09T00:21:43;97828.59;;;14.15;100.00
21633;BME280;48765;51.568;8.840;2022-09-09T00:24:15;97815.81;;;13.98;100.00
21633;BME280;48765;51.568;8.840;2022-09-09T00:26:47;97813.22;;;13.95;100.00
21633;BME280;48765;51.568;8.840;2022-09-09T00:29:19;97810.50;;;13.98;100.00
21633;BME280;48765;51.568;8.840;2022-09-09T00:31:48;97815.31;;;13.86;100.00
21633;BME280;48765;51.568;8.840;2022-09-09T00:34:19;97808.03;;;13.91;100.00
21633;BME280;48765;51.568;8.840;2022-09-09T00:36:49;97809.91;;;13.87;100.00
21633;BME280;48765;51.568;8.840;2022-09-09T00:39:19;97796.19;;;14.01;100.00
21633;BME280;48765;51.568;8.840;2022-09-09T00:41:50;97807.28;;;14.15;100.00
21633;BME280;48765;51.568;8.840;2022-09-09T00:44:27;97808.56;;;14.03;100.00
21633;BME280;48765;51.568;8.840;2022-09-09T00:46:59;97805.47;;;14.16;100.00
21633;BME280;48765;51.568;8.840;2022-09-09T00:49:35;97809.72;;;14.23;100.00
21633;BME280;48765;51.568;8.840;2022-09-09T00:52:10;97813.84;;;14.33;100.00
21633;BME280;48765;51.568;8.840;2022-09-09T00:54:45;97808.13;;;14.45;100.00
21633;BME280;48765;51.568;8.840;2022-09-09T00:57:18;97814.06;;;14.53;100.00
21633;BME280;48765;51.568;8.840;2022-09-09T00:59:51;97807.13;;;14.49;100.00
21633;BME280;48765;51.568;8.840;2022-09-09T01:02:24;97804.53;;;14.46;100.00
21633;BME280;48765;51.568;8.840;2022-09-09T01:04:54;97797.19;;;14.25;100.00
21633;BME280;48765;51.568;8.840;2022-09-09T01:07:24;97814.97;;;14.26;100.00
21633;BME280;48765;51.568;8.840;2022-09-09T01:09:52;97815.06;;;14.51;100.00
21633;BME280;48765;51.568;8.840;2022-09-09T01:12:25;97814.56;;;14.66;100.00
21633;BME280;48765;51.568;8.840;2022-09-09T01:14:54;97815.72;;;14.57;100.00
21633;BME280;48765;51.568;8.840;2022-09-09T01:17:25;97819.16;;;14.61;100.00
21633;BME280;48765;51.568;8.840;2022-09-09T01:20:02;97822.72;;;14.62;100.00
21633;BME280;48765;51.568;8.840;2022-09-09T01:22:33;97818.22;;;14.64;100.00
21633;BME280;48765;51.568;8.840;2022-09-09T01:25:21;97820.41;;;14.51;100.00
21633;BME280;48765;51.568;8.840;2022-09-09T01:27:52;97821.19;;;14.54;100.00
21633;BME280;48765;51.568;8.840;2022-09-09T01:30:22;97812.31;;;14.26;100.00
21633;BME280;48765;51.568;8.840;2022-09-09T01:32:50;97805.03;;;14.31;100.00
21633;BME280;48765;51.568;8.840;2022-09-09T01:35:19;97813.47;;;14.17;100.00
21633;BME280;48765;51.568;8.840;2022-09-09T01:37:52;97814.75;;;14.04;100.00
21633;BME280;48765;51.568;8.840;2022-09-09T01:40:19;97814.34;;;13.88;100.00
21633;BME280;48765;51.568;8.840;2022-09-09T01:42:46;97809.97;;;13.86;100.00
21633;BME280;48765;51.568;8.840;2022-09-09T01:45:14;97816.19;;;13.86;100.00
21633;BME280;48765;51.568;8.840;2022-09-09T01:47:41;97815.53;;;13.78;100.00
21633;BME280;48765;51.568;8.840;2022-09-09T01:50:09;97810.84;;;13.86;100.00
21633;BME280;48765;51.568;8.840;2022-09-09T01:52:37;97811.66;;;13.59;100.00
21633;BME280;48765;51.568;8.840;2022-09-09T01:55:04;97813.19;;;13.67;100.00
21633;BME280;48765;51.568;8.840;2022-09-09T01:57:33;97817.97;;;13.56;100.00
21633;BME280;48765;51.568;8.840;2022-09-09T02:00:05;97809.47;;;13.73;100.00
21633;BME280;48765;51.568;8.840;2022-09-09T02:02:36;97812.41;;;13.64;100.00
21633;BME280;48765;51.568;8.840;2022-09-09T02:05:07;97814.25;;;13.62;100.00
21633;BME280;48765;51.568;8.840;2022-09-09T02:07:38;97818.97;;;13.81;100.00
21633;BME280;48765;51.568;8.840;2022-09-09T02:10:08;97816.25;;;13.83;100.00
21633;BME280;48765;51.568;8.840;2022-09-09T02:12:35;97813.59;;;13.83;100.00
21633;BME280;48765;51.568;8.840;2022-09-09T02:15:03;97802.13;;;13.81;100.00
21633;BME280;48765;51.568;8.840;2022-09-09T02:17:35;97805.13;;;13.69;100.00
21633;BME280;48765;51.568;8.840;2022-09-09T02:20:06;97808.44;;;13.78;100.00
21633;BME280;48765;51.568;8.840;2022-09-09T02:22:34;97806.66;;;13.77;100.00
21633;BME280;48765;51.568;8.840;2022-09-09T02:25:05;97800.91;;;13.91;100.00
21633;BME280;48765;51.568;8.840;2022-09-09T02:27:33;97811.88;;;14.10;100.00
21633;BME280;48765;51.568;8.840;2022-09-09T02:30:00;97805.97;;;14.00;100.00
21633;BME280;48765;51.568;8.840;2022-09-09T02:32:28;97806.41;;;14.15;100.00
21633;BME280;48765;51.568;8.840;2022-09-09T02:34:59;97812.59;;;14.17;100.00
21633;BME280;48765;51.568;8.840;2022-09-09T02:37:29;97808.44;;;14.06;100.00
21633;BME280;48765;51.568;8.840;2022-09-09T02:39:58;97808.88;;;14.21;100.00
21633;BME280;48765;51.568;8.840;2022-09-09T02:42:25;97808.06;;;14.19;100.00
21633;BME280;48765;51.568;8.840;2022-09-09T02:44:52;97808.69;;;14.27;100.00
21633;BME280;48765;51.568;8.840;2022-09-09T02:47:23;97806.63;;;14.37;100.00
21633;BME280;48765;51.568;8.840;2022-09-09T02:49:56;97816.03;;;14.48;100.00
21633;BME280;48765;51.568;8.840;2022-09-09T02:52:30;97813.47;;;14.72;100.00
21633;BME280;48765;51.568;8.840;2022-09-09T02:54:59;97815.81;;;14.82;100.00
21633;BME280;48765;51.568;8.840;2022-09-09T02:57:30;97810.03;;;14.95;100.00
21633;BME280;48765;51.568;8.840;2022-09-09T02:59:58;97808.94;;;15.00;100.00
21633;BME280;48765;51.568;8.840;2022-09-09T03:02:25;97812.69;;;14.95;100.00
21633;BME280;48765;51.568;8.840;2022-09-09T03:04:52;97816.44;;;14.89;100.00
21633;BME280;48765;51.568;8.840;2022-09-09T03:07:19;97809.94;;;14.98;100.00
21633;BME280;48765;51.568;8.840;2022-09-09T03:09:48;97823.22;;;14.99;100.00
21633;BME280;48765;51.568;8.840;2022-09-09T03:12:15;97824.84;;;15.03;100.00
21633;BME280;48765;51.568;8.840;2022-09-09T03:14:43;97818.66;;;15.03;100.00
21633;BME280;48765;51.568;8.840;2022-09-09T03:17:11;97817.78;;;15.02;100.00
21633;BME280;48765;51.568;8.840;2022-09-09T03:19:56;97825.16;;;14.94;100.00
21633;BME280;48765;51.568;8.840;2022-09-09T03:22:44;97817.09;;;14.96;100.00
21633;BME280;48765;51.568;8.840;2022-09-09T03:25:33;97811.81;;;14.94;100.00
21633;BME280;48765;51.568;8.840;2022-09-09T03:28:21;97808.13;;;14.98;100.00
21633;BME280;48765;51.568;8.840;2022-09-09T03:31:08;97815.34;;;14.96;100.00
21633;BME280;48765;51.568;8.840;2022-09-09T03:33:56;97816.25;;;14.69;100.00
21633;BME280;48765;51.568;8.840;2022-09-09T03:36:43;97808.13;;;14.72;100.00
21633;BME280;48765;51.568;8.840;2022-09-09T03:39:31;97811.31;;;14.56;100.00
21633;BME280;48765;51.568;8.840;2022-09-09T03:42:19;97810.38;;;14.59;100.00
21633;BME280;48765;51.568;8.840;2022-09-09T03:45:07;97808.66;;;14.56;100.00
21633;BME280;48765;51.568;8.840;2022-09-09T03:47:56;97801.78;;;14.49;100.00
21633;BME280;48765;51.568;8.840;2022-09-09T03:50:46;97812.97;;;14.32;100.00
21633;BME280;48765;51.568;8.840;2022-09-09T03:53:33;97815.69;;;14.31;100.00
21633;BME280;48765;51.568;8.840;2022-09-09T03:56:21;97808.00;;;14.20;100.00
21633;BME280;48765;51.568;8.840;2022-09-09T03:59:10;97803.50;;;13.94;100.00
21633;BME280;48765;51.568;8.840;2022-09-09T04:01:57;97800.50;;;14.05;100.00
21633;BME280;48765;51.568;8.840;2022-09-09T04:04:44;97811.16;;;14.05;100.00
21633;BME280;48765;51.568;8.840;2022-09-09T04:07:32;97802.91;;;13.85;100.00
21633;BME280;48765;51.568;8.840;2022-09-09T04:10:19;97806.22;;;13.93;100.00
21633;BME280;48765;51.568;8.840;2022-09-09T04:13:06;97801.66;;;13.96;100.00
21633;BME280;48765;51.568;8.840;2022-09-09T04:15:56;97807.09;;;13.93;100.00
21633;BME280;48765;51.568;8.840;2022-09-09T04:18:43;97803.41;;;13.97;100.00
21633;BME280;48765;51.568;8.840;2022-09-09T04:21:31;97806.63;;;14.09;100.00
21633;BME280;48765;51.568;8.840;2022-09-09T04:24:18;97810.34;;;14.03;100.00
21633;BME280;48765;51.568;8.840;2022-09-09T04:27:06;97808.97;;;13.90;100.00
21633;BME280;48765;51.568;8.840;2022-09-09T04:29:53;97819.50;;;13.94;100.00
21633;BME280;48765;51.568;8.840;2022-09-09T04:32:23;97811.22;;;14.03;100.00
21633;BME280;48765;51.568;8.840;2022-09-09T04:34:52;97818.94;;;14.13;100.00
21633;BME280;48765;51.568;8.840;2022-09-09T04:37:19;97824.94;;;14.19;100.00
21633;BME280;48765;51.568;8.840;2022-09-09T04:39:46;97823.72;;;14.29;100.00
21633;BME280;48765;51.568;8.840;2022-09-09T04:42:14;97815.53;;;14.07;100.00
21633;BME280;48765;51.568;8.840;2022-09-09T04:44:41;97822.13;;;14.24;100.00
21633;BME280;48765;51.568;8.840;2022-09-09T04:47:08;97820.75;;;14.39;100.00
21633;BME280;48765;51.568;8.840;2022-09-09T04:49:37;97829.03;;;14.31;100.00
21633;BME280;48765;51.568;8.840;2022-09-09T04:52:04;97828.72;;;14.40;100.00
21633;BME280;48765;51.568;8.840;2022-09-09T04:54:31;97834.94;;;14.41;100.00
21633;BME280;48765;51.568;8.840;2022-09-09T04:56:58;97828.72;;;14.40;100.00
21633;BME280;48765;51.568;8.840;2022-09-09T04:59:25;97826.16;;;14.37;100.00
21633;BME280;48765;51.568;8.840;2022-09-09T05:01:53;97835.59;;;14.47;100.00
21633;BME280;48765;51.568;8.840;2022-09-09T05:04:20;97828.81;;;14.37;100.00
21633;BME280;48765;51.568;8.840;2022-09-09T05:06:48;97836.47;;;14.49;100.00
21633;BME280;48765;51.568;8.840;2022-09-09T05:09:15;97835.69;;;14.44;100.00
21633;BME280;48765;51.568;8.840;2022-09-09T05:11:42;97837.53;;;14.42;100.00
21633;BME280;48765;51.568;8.840;2022-09-09T05:14:09;97830.56;;;14.38;100.00
21633;BME280;48765;51.568;8.840;2022-09-09T05:16:38;97832.97;;;14.46;100.00
21633;BME280;48765;51.568;8.840;2022-09-09T05:19:04;97832.94;;;14.47;100.00
21633;BME280;48765;51.568;8.840;2022-09-09T05:21:33;97835.00;;;14.38;100.00
21633;BME280;48765;51.568;8.840;2022-09-09T05:24:01;97832.28;;;14.39;100.00
21633;BME280;48765;51.568;8.840;2022-09-09T05:26:28;97823.34;;;14.42;100.00
21633;BME280;48765;51.568;8.840;2022-09-09T05:28:56;97822.66;;;14.35;100.00
21633;BME280;48765;51.568;8.840;2022-09-09T05:31:25;97816.13;;;14.45;100.00
21633;BME280;48765;51.568;8.840;2022-09-09T05:33:53;97816.06;;;14.47;100.00
21633;BME280;48765;51.568;8.840;2022-09-09T05:36:21;97816.88;;;14.50;100.00
21633;BME280;48765;51.568;8.840;2022-09-09T05:38:48;97816.72;;;14.55;100.00
21633;BME280;48765;51.568;8.840;2022-09-09T05:41:20;97822.19;;;14.50;100.00
21633;BME280;48765;51.568;8.840;2022-09-09T05:43:48;97820.97;;;14.61;100.00
21633;BME280;48765;51.568;8.840;2022-09-09T05:46:16;97819.31;;;14.56;100.00
21633;BME280;48765;51.568;8.840;2022-09-09T05:48:43;97820.97;;;14.61;100.00
21633;BME280;48765;51.568;8.840;2022-09-09T05:51:12;97829.16;;;14.81;100.00
21633;BME280;48765;51.568;8.840;2022-09-09T05:53:40;97821.69;;;14.92;100.00
21633;BME280;48765;51.568;8.840;2022-09-09T05:56:13;97820.22;;;15.08;100.00
21633;BME280;48765;51.568;8.840;2022-09-09T05:58:42;97819.69;;;15.24;100.00
21633;BME280;48765;51.568;8.840;2022-09-09T06:01:10;97823.19;;;15.26;100.00
21633;BME280;48765;51.568;8.840;2022-09-09T06:03:38;97828.47;;;15.27;100.00
21633;BME280;48765;51.568;8.840;2022-09-09T06:06:06;97818.91;;;15.45;100.00
21633;BME280;48765;51.568;8.840;2022-09-09T06:08:33;97822.88;;;15.58;100.00
21633;BME280;48765;51.568;8.840;2022-09-09T06:11:02;97827.09;;;15.66;100.00
21633;BME280;48765;51.568;8.840;2022-09-09T06:13:30;97825.56;;;15.58;100.00
21633;BME280;48765;51.568;8.840;2022-09-09T06:15:58;97828.50;;;15.76;100.00
21633;BME280;48765;51.568;8.840;2022-09-09T06:18:25;97831.16;;;15.76;100.00
21633;BME280;48765;51.568;8.840;2022-09-09T06:20:56;97839.78;;;15.84;100.00
21633;BME280;48765;51.568;8.840;2022-09-09T06:23:23;97830.81;;;15.85;100.00
21633;BME280;48765;51.568;8.840;2022-09-09T06:25:50;97832.41;;;15.91;100.00
21633;BME280;48765;51.568;8.840;2022-09-09T06:28:17;97838.31;;;15.99;100.00
21633;BME280;48765;51.568;8.840;2022-09-09T06:30:44;97843.63;;;16.00;100.00
21633;BME280;48765;51.568;8.840;2022-09-09T06:33:12;97845.38;;;16.01;100.00
21633;BME280;48765;51.568;8.840;2022-09-09T06:35:39;97844.19;;;16.08;100.00
21633;BME280;48765;51.568;8.840;2022-09-09T06:38:06;97847.94;;;16.04;100.00
21633;BME280;48765;51.568;8.840;2022-09-09T06:40:33;97849.41;;;16.12;100.00
21633;BME280;48765;51.568;8.840;2022-09-09T06:43:00;97845.13;;;16.07;100.00
21633;BME280;48765;51.568;8.840;2022-09-09T06:45:27;97856.75;;;16.06;100.00
21633;BME280;48765;51.568;8.840;2022-09-09T06:47:54;97856.16;;;16.22;100.00
21633;BME280;48765;51.568;8.840;2022-09-09T06:50:23;97855.78;;;16.31;100.00
21633;BME280;48765;51.568;8.840;2022-09-09T06:52:50;97851.69;;;16.44;100.00
21633;BME280;48765;51.568;8.840;2022-09-09T06:55:17;97863.53;;;16.39;100.00
21633;BME280;48765;51.568;8.840;2022-09-09T06:57:44;97858.47;;;16.31;100.00
21633;BME280;48765;51.568;8.840;2022-09-09T07:00:12;97858.78;;;16.45;100.00
21633;BME280;48765;51.568;8.840;2022-09-09T07:02:39;97860.84;;;16.60;100.00
21633;BME280;48765;51.568;8.840;2022-09-09T07:05:06;97859.78;;;16.65;100.00
21633;BME280;48765;51.568;8.840;2022-09-09T07:07:35;97859.38;;;16.53;100.00
21633;BME280;48765;51.568;8.840;2022-09-09T07:10:02;97853.53;;;16.66;100.00
21633;BME280;48765;51.568;8.840;2022-09-09T07:12:30;97864.34;;;16.63;100.00
21633;BME280;48765;51.568;8.840;2022-09-09T07:14:57;97869.97;;;16.78;100.00
21633;BME280;48765;51.568;8.840;2022-09-09T07:17:24;97867.16;;;17.03;100.00
21633;BME280;48765;51.568;8.840;2022-09-09T07:19:51;97860.72;;;17.07;100.00
21633;BME280;48765;51.568;8.840;2022-09-09T07:22:18;97862.00;;;17.19;100.00
21633;BME280;48765;51.568;8.840;2022-09-09T07:24:46;97857.59;;;17.38;100.00
21633;BME280;48765;51.568;8.840;2022-09-09T07:27:14;97856.66;;;17.60;100.00
21633;BME280;48765;51.568;8.840;2022-09-09T07:29:41;97857.88;;;17.73;100.00
21633;BME280;48765;51.568;8.840;2022-09-09T07:32:08;97854.78;;;17.62;100.00
21633;BME280;48765;51.568;8.840;2022-09-09T07:34:35;97854.66;;;17.85;100.00
21633;BME280;48765;51.568;8.840;2022-09-09T07:37:02;97852.00;;;18.04;100.00
21633;BME280;48765;51.568;8.840;2022-09-09T07:39:29;97857.53;;;17.81;100.00
21633;BME280;48765;51.568;8.840;2022-09-09T07:41:57;97854.28;;;17.74;100.00
21633;BME280;48765;51.568;8.840;2022-09-09T07:44:24;97852.25;;;17.79;100.00
21633;BME280;48765;51.568;8.840;2022-09-09T07:46:52;97861.81;;;17.85;100.00
21633;BME280;48765;51.568;8.840;2022-09-09T07:49:19;97863.97;;;17.77;100.00
21633;BME280;48765;51.568;8.840;2022-09-09T07:51:46;97868.34;;;17.79;100.00
21633;BME280;48765;51.568;8.840;2022-09-09T07:54:15;97870.38;;;17.74;100.00
21633;BME280;48765;51.568;8.840;2022-09-09T07:56:45;97867.69;;;17.74;100.00
21633;BME280;48765;51.568;8.840;2022-09-09T07:59:13;97865.59;;;17.81;100.00
21633;BME280;48765;51.568;8.840;2022-09-09T08:01:41;97872.13;;;17.94;100.00
21633;BME280;48765;51.568;8.840;2022-09-09T08:04:09;97869.53;;;17.93;100.00
21633;BME280;48765;51.568;8.840;2022-09-09T08:06:40;97871.72;;;18.03;100.00
21633;BME280;48765;51.568;8.840;2022-09-09T08:09:08;97868.81;;;18.08;100.00
21633;BME280;48765;51.568;8.840;2022-09-09T08:11:35;97876.66;;;18.12;100.00
21633;BME280;48765;51.568;8.840;2022-09-09T08:14:02;97860.56;;;18.12;100.00
21633;BME280;48765;51.568;8.840;2022-09-09T08:16:31;97852.94;;;18.03;100.00
21633;BME280;48765;51.568;8.840;2022-09-09T08:18:58;97852.06;;;18.03;100.00
21633;BME280;48765;51.568;8.840;2022-09-09T08:21:26;97859.59;;;18.13;100.00
21633;BME280;48765;51.568;8.840;2022-09-09T08:23:54;97865.97;;;18.30;100.00
21633;BME280;48765;51.568;8.840;2022-09-09T08:26:21;97871.44;;;18.28;100.00
21633;BME280;48765;51.568;8.840;2022-09-09T08:28:49;97863.72;;;18.21;100.00
21633;BME280;48765;51.568;8.840;2022-09-09T08:31:17;97860.38;;;18.53;100.00
21633;BME280;48765;51.568;8.840;2022-09-09T08:33:46;97861.53;;;18.67;100.00
21633;BME280;48765;51.568;8.840;2022-09-09T08:36:13;97867.44;;;18.56;100.00
21633;BME280;48765;51.568;8.840;2022-09-09T08:38:41;97865.72;;;18.36;100.00
21633;BME280;48765;51.568;8.840;2022-09-09T08:43:58;97871.06;;;18.36;100.00
21633;BME280;48765;51.568;8.840;2022-09-09T08:46:30;97865.63;;;18.19;100.00
21633;BME280;48765;51.568;8.840;2022-09-09T08:49:01;97869.56;;;18.30;100.00
21633;BME280;48765;51.568;8.840;2022-09-09T08:51:33;97868.63;;;18.31;100.00
21633;BME280;48765;51.568;8.840;2022-09-09T08:54:00;97858.81;;;18.49;100.00
21633;BME280;48765;51.568;8.840;2022-09-09T08:56:29;97861.28;;;18.73;100.00
21633;BME280;48765;51.568;8.840;2022-09-09T08:58:57;97865.41;;;18.80;100.00
21633;BME280;48765;51.568;8.840;2022-09-09T09:04:14;97878.59;;;18.65;100.00
21633;BME280;48765;51.568;8.840;2022-09-09T09:06:50;97888.91;;;18.75;100.00
21633;BME280;48765;51.568;8.840;2022-09-09T09:09:22;97885.78;;;18.65;100.00
21633;BME280;48765;51.568;8.840;2022-09-09T09:11:53;97889.91;;;18.91;100.00
21633;BME280;48765;51.568;8.840;2022-09-09T09:14:23;97897.69;;;18.97;98.82
21633;BME280;48765;51.568;8.840;2022-09-09T09:16:51;97891.84;;;19.06;95.09
21633;BME280;48765;51.568;8.840;2022-09-09T09:19:20;97881.09;;;19.06;97.31
21633;BME280;48765;51.568;8.840;2022-09-09T09:21:52;97886.47;;;19.24;95.88
21633;BME280;48765;51.568;8.840;2022-09-09T09:24:22;97879.22;;;19.26;97.85
21633;BME280;48765;51.568;8.840;2022-09-09T09:26:51;97872.81;;;19.46;97.64
21633;BME280;48765;51.568;8.840;2022-09-09T09:29:19;97872.75;;;19.64;96.93
21633;BME280;48765;51.568;8.840;2022-09-09T09:31:47;97869.69;;;19.72;96.44
21633;BME280;48765;51.568;8.840;2022-09-09T09:34:16;97868.53;;;19.41;95.31
21633;BME280;48765;51.568;8.840;2022-09-09T09:36:45;97870.59;;;19.36;96.64
21633;BME280;48765;51.568;8.840;2022-09-09T09:39:21;97877.06;;;19.32;94.61
21633;BME280;48765;51.568;8.840;2022-09-09T09:41:49;97881.03;;;19.25;96.86
21633;BME280;48765;51.568;8.840;2022-09-09T09:44:22;97869.59;;;19.39;95.37
21633;BME280;48765;51.568;8.840;2022-09-09T09:46:49;97873.53;;;19.32;95.87
21633;BME280;48765;51.568;8.840;2022-09-09T09:49:16;97874.00;;;19.40;97.57
21633;BME280;48765;51.568;8.840;2022-09-09T09:51:45;97870.53;;;19.55;95.93
21633;BME280;48765;51.568;8.840;2022-09-09T09:54:17;97873.84;;;19.43;98.38
21633;BME280;48765;51.568;8.840;2022-09-09T09:56:46;97875.28;;;19.50;93.18
21633;BME280;48765;51.568;8.840;2022-09-09T09:59:21;97875.66;;;19.25;92.80
21633;BME280;48765;51.568;8.840;2022-09-09T10:01:48;97867.44;;;19.11;88.51
21633;BME280;48765;51.568;8.840;2022-09-09T10:04:16;97873.03;;;19.24;88.07
21633;BME280;48765;51.568;8.840;2022-09-09T10:06:45;97869.09;;;19.13;87.56
21633;BME280;48765;51.568;8.840;2022-09-09T10:09:20;97868.16;;;19.66;87.35
21633;BME280;48765;51.568;8.840;2022-09-09T10:11:48;97869.63;;;19.89;87.72
21633;BME280;48765;51.568;8.840;2022-09-09T10:14:19;97866.69;;;19.94;84.74
21633;BME280;48765;51.568;8.840;2022-09-09T10:17:00;97866.91;;;19.74;86.84
21633;BME280;48765;51.568;8.840;2022-09-09T10:19:29;97861.22;;;19.62;87.46
21633;BME280;48765;51.568;8.840;2022-09-09T10:22:02;97873.84;;;19.43;87.17
21633;BME280;48765;51.568;8.840;2022-09-09T10:24:54;97866.28;;;19.69;86.96
21633;BME280;48765;51.568;8.840;2022-09-09T10:27:27;97860.25;;;19.81;85.61
21633;BME280;48765;51.568;8.840;2022-09-09T10:30:06;97854.16;;;19.77;84.49
21633;BME280;48765;51.568;8.840;2022-09-09T10:32:37;97862.28;;;19.93;83.45
21633;BME280;48765;51.568;8.840;2022-09-09T10:35:09;97847.06;;;20.41;79.89
21633;BME280;48765;51.568;8.840;2022-09-09T10:37:52;97850.50;;;20.60;77.83
21633;BME280;48765;51.568;8.840;2022-09-09T10:40:32;97845.28;;;20.73;74.78
21633;BME280;48765;51.568;8.840;2022-09-09T10:43:03;97845.53;;;20.68;70.71
21633;BME280;48765;51.568;8.840;2022-09-09T10:45:35;97851.75;;;21.01;70.92
21633;BME280;48765;51.568;8.840;2022-09-09T10:48:13;97844.25;;;20.76;72.27
21633;BME280;48765;51.568;8.840;2022-09-09T10:50:49;97849.16;;;20.99;72.53
21633;BME280;48765;51.568;8.840;2022-09-09T10:53:21;97843.72;;;21.15;73.22
21633;BME280;48765;51.568;8.840;2022-09-09T10:55:51;97847.84;;;21.06;73.43
21633;BME280;48765;51.568;8.840;2022-09-09T10:58:21;97846.25;;;21.18;73.26
21633;BME280;48765;51.568;8.840;2022-09-09T11:00:51;97842.69;;;21.17;73.67
21633;BME280;48765;51.568;8.840;2022-09-09T11:03:20;97843.28;;;21.23;73.87
21633;BME280;48765;51.568;8.840;2022-09-09T11:05:49;97836.41;;;20.87;71.13
21633;BME280;48765;51.568;8.840;2022-09-09T11:08:20;97834.41;;;20.43;71.35
21633;BME280;48765;51.568;8.840;2022-09-09T11:10:48;97836.13;;;20.44;73.20
21633;BME280;48765;51.568;8.840;2022-09-09T11:13:19;97839.69;;;20.29;73.53
21633;BME280;48765;51.568;8.840;2022-09-09T11:15:49;97844.28;;;20.27;73.32
21633;BME280;48765;51.568;8.840;2022-09-09T11:18:18;97840.09;;;20.21;73.66
21633;BME280;48765;51.568;8.840;2022-09-09T11:20:47;97840.09;;;20.05;76.11
21633;BME280;48765;51.568;8.840;2022-09-09T11:23:17;97838.47;;;20.19;75.26
21633;BME280;48765;51.568;8.840;2022-09-09T11:25:47;97844.81;;;20.33;73.39
21633;BME280;48765;51.568;8.840;2022-09-09T11:31:04;97848.09;;;20.23;72.01
21633;BME280;48765;51.568;8.840;2022-09-09T11:33:38;97848.44;;;20.16;72.75
21633;BME280;48765;51.568;8.840;2022-09-09T11:36:25;97843.31;;;20.28;73.88
21633;BME280;48765;51.568;8.840;2022-09-09T11:39:00;97842.91;;;20.20;75.19
21633;BME280;48765;51.568;8.840;2022-09-09T11:41:34;97843.66;;;20.06;75.82
21633;BME280;48765;51.568;8.840;2022-09-09T11:44:09;97852.44;;;20.09;78.38
21633;BME280;48765;51.568;8.840;2022-09-09T11:46:37;97847.09;;;19.92;77.45
21633;BME280;48765;51.568;8.840;2022-09-09T11:49:05;97840.34;;;20.01;77.52
21633;BME280;48765;51.568;8.840;2022-09-09T11:51:33;97845.13;;;20.11;77.39
21633;BME280;48765;51.568;8.840;2022-09-09T11:54:01;97853.31;;;20.10;78.85
21633;BME280;48765;51.568;8.840;2022-09-09T11:56:28;97844.63;;;20.21;78.91
21633;BME280;48765;51.568;8.840;2022-09-09T11:58:59;97843.06;;;20.32;77.20
21633;BME280;48765;51.568;8.840;2022-09-09T12:01:37;97851.38;;;20.28;78.59
21633;BME280;48765;51.568;8.840;2022-09-09T12:04:17;97845.66;;;20.18;79.39
21633;BME280;48765;51.568;8.840;2022-09-09T12:06:50;97848.06;;;20.07;79.58
21633;BME280;48765;51.568;8.840;2022-09-09T12:09:19;97844.25;;;19.95;79.78
21633;BME280;48765;51.568;8.840;2022-09-09T12:11:50;97847.56;;;20.16;80.77
21633;BME280;48765;51.568;8.840;2022-09-09T12:14:22;97850.72;;;20.24;79.83
21633;BME280;48765;51.568;8.840;2022-09-09T12:16:49;97848.75;;;20.59;80.21
21633;BME280;48765;51.568;8.840;2022-09-09T12:19:18;97839.78;;;20.43;77.04
21633;BME280;48765;51.568;8.840;2022-09-09T12:21:48;97847.28;;;20.70;78.10
21633;BME280;48765;51.568;8.840;2022-09-09T12:24:19;97831.22;;;21.14;74.81
21633;BME280;48765;51.568;8.840;2022-09-09T12:26:52;97848.31;;;21.29;70.49
21633;BME280;48765;51.568;8.840;2022-09-09T12:29:25;97843.72;;;21.31;69.09
21633;BME280;48765;51.568;8.840;2022-09-09T12:31:56;97840.19;;;21.44;68.19
21633;BME280;48765;51.568;8.840;2022-09-09T12:34:30;97853.09;;;21.24;69.44
21633;BME280;48765;51.568;8.840;2022-09-09T12:36:59;97842.75;;;20.86;70.07
21633;BME280;48765;51.568;8.840;2022-09-09T12:39:28;97859.00;;;20.68;69.71
21633;BME280;48765;51.568;8.840;2022-09-09T12:41:57;97860.97;;;20.33;70.24
21633;BME280;48765;51.568;8.840;2022-09-09T12:44:26;97866.59;;;20.29;69.16
21633;BME280;48765;51.568;8.840;2022-09-09T12:46:54;97859.41;;;20.29;68.39
21633;BME280;48765;51.568;8.840;2022-09-09T12:49:29;97856.97;;;20.25;67.72
21633;BME280;48765;51.568;8.840;2022-09-09T12:52:00;97861.63;;;20.54;68.07
21633;BME280;48765;51.568;8.840;2022-09-09T12:54:27;97854.72;;;20.96;70.09
21633;BME280;48765;51.568;8.840;2022-09-09T12:56:54;97854.50;;;21.31;68.83
21633;BME280;48765;51.568;8.840;2022-09-09T12:59:22;97846.53;;;21.43;68.26
21633;BME280;48765;51.568;8.840;2022-09-09T13:01:56;97850.88;;;21.32;68.51
21633;BME280;48765;51.568;8.840;2022-09-09T13:04:23;97860.19;;;21.10;70.63
21633;BME280;48765;51.568;8.840;2022-09-09T13:06:50;97845.00;;;20.78;69.83
21633;BME280;48765;51.568;8.840;2022-09-09T13:09:18;97846.75;;;20.79;71.23
21633;BME280;48765;51.568;8.840;2022-09-09T13:11:46;97841.31;;;21.10;72.79
21633;BME280;48765;51.568;8.840;2022-09-09T13:14:15;97835.88;;;21.42;72.21
21633;BME280;48765;51.568;8.840;2022-09-09T13:16:53;97834.84;;;21.29;71.88
21633;BME280;48765;51.568;8.840;2022-09-09T13:19:22;97834.56;;;21.03;72.32
21633;BME280;48765;51.568;8.840;2022-09-09T13:21:51;97829.31;;;21.32;71.43